createdAt,value
2018-04-10T00:00:38.178Z,14.2
2018-04-10T00:01:47.871Z,14.15
2018-04-10T00:02:57.832Z,14.2
2018-04-10T00:04:07.786Z,14.12
2018-04-10T00:05:17.753Z,14.08
2018-04-10T00:06:27.720Z,14.08
2018-04-10T00:07:37.436Z,14.04
2018-04-10T00:08:47.407Z,14.07
2018-04-10T00:09:57.116Z,14.05
2018-04-10T00:11:07.082Z,14.05
2018-04-10T00:12:17.043Z,14.03
2018-04-10T00:13:26.998Z,13.98
2018-04-10T00:14:36.958Z,13.98
2018-04-10T00:15:46.921Z,13.97
2018-04-10T00:16:56.869Z,13.91
2018-04-10T00:18:06.579Z,13.91
2018-04-10T00:19:16.550Z,13.85
2018-04-10T00:20:26.514Z,13.94
2018-04-10T00:21:36.469Z,13.86
2018-04-10T00:22:46.176Z,13.82
2018-04-10T00:23:55.370Z,13.8
2018-04-10T00:25:05.327Z,13.76
2018-04-10T00:26:15.301Z,13.71
2018-04-10T00:27:25.369Z,13.78
2018-04-10T00:28:35.320Z,13.76
2018-04-10T00:29:45.015Z,13.73
2018-04-10T00:30:54.965Z,13.7
2018-04-10T00:32:04.667Z,13.75
2018-04-10T00:33:14.640Z,13.65
2018-04-10T00:34:24.603Z,13.7
2018-04-10T00:35:34.309Z,13.65
2018-04-10T00:36:44.282Z,13.65
2018-04-10T00:37:54.238Z,13.71
2018-04-10T00:39:04.219Z,13.76
2018-04-10T00:40:14.193Z,13.71
2018-04-10T00:41:23.897Z,13.73
2018-04-10T00:42:33.866Z,13.67
2018-04-10T00:43:43.834Z,13.64
2018-04-10T00:44:53.804Z,13.6
2018-04-10T00:46:03.989Z,13.57
2018-04-10T00:47:13.957Z,13.55
2018-04-10T00:48:23.919Z,13.5
2018-04-10T00:49:33.870Z,13.55
2018-04-10T00:50:43.822Z,13.46
2018-04-10T00:51:53.785Z,13.45
2018-04-10T00:53:03.761Z,13.43
2018-04-10T00:54:13.467Z,13.45
2018-04-10T00:55:23.424Z,13.4
2018-04-10T00:56:33.124Z,13.37
2018-04-10T00:57:43.092Z,13.39
2018-04-10T00:58:52.798Z,13.28
2018-04-10T01:00:02.762Z,13.33
2018-04-10T01:01:12.753Z,13.24
2018-04-10T01:02:22.821Z,13.21
2018-04-10T01:03:32.800Z,13.26
2018-04-10T01:04:42.245Z,13.16
2018-04-10T01:05:52.214Z,13.23
2018-04-10T01:07:01.911Z,13.17
2018-04-10T01:08:11.882Z,13.16
2018-04-10T01:09:21.844Z,13.12
2018-04-10T01:10:31.810Z,13.08
2018-04-10T01:11:41.518Z,13.11
2018-04-10T01:12:51.481Z,13.06
2018-04-10T01:14:01.438Z,13.03
2018-04-10T01:15:11.140Z,13.03
2018-04-10T01:16:21.101Z,13.01
2018-04-10T01:17:30.799Z,13.03
2018-04-10T01:18:40.764Z,13.05
2018-04-10T01:19:50.203Z,13.02
2018-04-10T01:21:00.157Z,12.99
2018-04-10T01:22:10.135Z,12.98
2018-04-10T01:23:20.104Z,12.99
2018-04-10T01:24:30.070Z,12.98
2018-04-10T01:25:39.768Z,12.93
2018-04-10T01:26:49.719Z,12.93
2018-04-10T01:27:59.419Z,12.95
2018-04-10T01:29:09.388Z,12.94
2018-04-10T01:30:18.832Z,12.91
2018-04-10T01:31:28.542Z,12.93
2018-04-10T01:32:37.993Z,13.02
2018-04-10T01:33:47.942Z,13.02
2018-04-10T01:34:57.384Z,12.95
2018-04-10T01:36:07.336Z,13.02
2018-04-10T01:37:17.034Z,13.01
2018-04-10T01:38:26.987Z,12.93
2018-04-10T01:39:36.958Z,12.88
2018-04-10T01:40:46.668Z,12.9
2018-04-10T01:41:56.382Z,12.91
2018-04-10T01:43:06.088Z,12.9
2018-04-10T01:44:15.786Z,12.84
2018-04-10T01:45:25.734Z,12.83
2018-04-10T01:46:35.699Z,12.83
2018-04-10T01:47:45.676Z,12.81
2018-04-10T01:48:55.644Z,12.8
2018-04-10T01:50:05.606Z,12.76
2018-04-10T01:51:15.565Z,12.76
2018-04-10T01:52:25.532Z,12.76
2018-04-10T01:53:35.529Z,12.73
2018-04-10T01:54:45.488Z,12.76
2018-04-10T01:55:55.445Z,12.78
2018-04-10T01:57:05.141Z,12.76
2018-04-10T01:58:15.111Z,12.76
2018-04-10T01:59:25.061Z,12.78
2018-04-10T02:00:35.022Z,12.73
2018-04-10T02:01:44.981Z,12.76
2018-04-10T02:02:54.947Z,12.66
2018-04-10T02:04:04.906Z,12.76
2018-04-10T02:05:14.857Z,12.66
2018-04-10T02:06:24.302Z,12.68
2018-04-10T02:07:34.260Z,12.73
2018-04-10T02:08:44.224Z,12.65
2018-04-10T02:09:54.227Z,12.66
2018-04-10T02:11:04.185Z,12.72
2018-04-10T02:12:14.134Z,12.68
2018-04-10T02:13:23.830Z,12.69
2018-04-10T02:14:33.538Z,12.61
2018-04-10T02:15:43.256Z,12.61
2018-04-10T02:16:52.959Z,12.58
2018-04-10T02:18:02.923Z,12.61
2018-04-10T02:19:12.893Z,12.61
2018-04-10T02:20:22.596Z,12.62
2018-04-10T02:21:32.578Z,12.58
2018-04-10T02:22:42.533Z,12.65
2018-04-10T02:23:52.230Z,12.63
2018-04-10T02:25:02.202Z,12.58
2018-04-10T02:26:12.236Z,12.61
2018-04-10T02:27:21.945Z,12.5
2018-04-10T02:28:31.922Z,12.51
2018-04-10T02:29:41.890Z,12.45
2018-04-10T02:30:51.850Z,12.5
2018-04-10T02:32:01.546Z,12.53
2018-04-10T02:33:11.518Z,12.48
2018-04-10T02:34:21.219Z,12.48
2018-04-10T02:35:30.920Z,12.51
2018-04-10T02:36:40.628Z,12.43
2018-04-10T02:37:50.585Z,12.5
2018-04-10T02:39:00.299Z,12.44
2018-04-10T02:40:10.266Z,12.45
2018-04-10T02:41:19.991Z,12.36
2018-04-10T02:42:29.982Z,12.4
2018-04-10T02:43:39.696Z,12.36
2018-04-10T02:44:49.403Z,12.33
2018-04-10T02:45:59.105Z,12.29
2018-04-10T02:47:09.067Z,12.26
2018-04-10T02:48:18.779Z,12.18
2018-04-10T02:49:28.740Z,12.17
2018-04-10T02:50:38.708Z,12.14
2018-04-10T02:51:48.693Z,12.1
2018-04-10T02:52:58.661Z,12.03
2018-04-10T02:54:08.619Z,12.07
2018-04-10T02:55:18.573Z,12.02
2018-04-10T02:56:28.524Z,11.99
2018-04-10T02:57:38.224Z,12
2018-04-10T02:58:48.191Z,12.07
2018-04-10T02:59:58.144Z,12.02
2018-04-10T03:01:07.852Z,11.99
2018-04-10T03:02:17.807Z,11.95
2018-04-10T03:03:27.765Z,11.96
2018-04-10T03:04:37.723Z,11.95
2018-04-10T03:05:47.441Z,11.88
2018-04-10T03:06:57.399Z,11.86
2018-04-10T03:08:06.847Z,11.93
2018-04-10T03:09:16.814Z,11.86
2018-04-10T03:10:26.772Z,11.96
2018-04-10T03:11:36.730Z,11.83
2018-04-10T03:12:46.708Z,11.77
2018-04-10T03:13:56.663Z,11.83
2018-04-10T03:15:06.365Z,11.83
2018-04-10T03:16:16.319Z,11.83
2018-04-10T03:17:26.277Z,11.81
2018-04-10T03:18:36.233Z,11.83
2018-04-10T03:19:46.189Z,11.83
2018-04-10T03:20:56.153Z,11.73
2018-04-10T03:22:06.116Z,11.83
2018-04-10T03:23:15.817Z,11.83
2018-04-10T03:24:25.782Z,11.77
2018-04-10T03:25:35.738Z,11.73
2018-04-10T03:26:45.179Z,11.76
2018-04-10T03:27:54.882Z,11.77
2018-04-10T03:29:04.586Z,11.74
2018-04-10T03:30:14.540Z,11.73
2018-04-10T03:31:24.237Z,11.63
2018-04-10T03:32:33.934Z,11.68
2018-04-10T03:33:43.908Z,11.68
2018-04-10T03:34:53.879Z,11.7
2018-04-10T03:36:03.858Z,11.68
2018-04-10T03:37:13.572Z,11.68
2018-04-10T03:38:22.751Z,11.7
2018-04-10T03:39:32.501Z,11.65
2018-04-10T03:40:42.462Z,11.71
2018-04-10T03:41:52.415Z,11.6
2018-04-10T03:43:02.380Z,11.6
2018-04-10T03:44:12.341Z,11.62
2018-04-10T03:45:22.298Z,11.59
2018-04-10T03:46:32.004Z,11.71
2018-04-10T03:47:41.963Z,11.71
2018-04-10T03:48:51.928Z,11.73
2018-04-10T03:50:01.909Z,11.62
2018-04-10T03:51:11.628Z,11.59
2018-04-10T03:52:21.339Z,11.6
2018-04-10T03:53:31.312Z,11.63
2018-04-10T03:54:41.024Z,11.56
2018-04-10T03:55:51.092Z,11.56
2018-04-10T03:57:01.051Z,11.59
2018-04-10T04:00:11.765Z,11.65
2018-04-10T04:01:21.722Z,11.56
2018-04-10T04:02:31.424Z,11.55
2018-04-10T04:03:41.382Z,11.53
2018-04-10T04:04:51.090Z,11.52
2018-04-10T04:06:00.530Z,11.52
2018-04-10T04:07:10.249Z,11.52
2018-04-10T04:08:19.958Z,11.55
2018-04-10T04:09:29.930Z,11.48
2018-04-10T04:10:39.643Z,11.45
2018-04-10T04:11:49.352Z,11.48
2018-04-10T04:12:59.313Z,11.63
2018-04-10T04:14:09.263Z,11.52
2018-04-10T04:15:19.885Z,11.52
2018-04-10T04:16:29.579Z,11.52
2018-04-10T04:17:39.280Z,11.58
2018-04-10T04:18:49.245Z,11.55
2018-04-10T04:19:58.947Z,11.51
2018-04-10T04:21:08.906Z,11.58
2018-04-10T04:22:18.874Z,11.63
2018-04-10T04:23:28.822Z,11.62
2018-04-10T04:24:38.788Z,11.63
2018-04-10T04:25:48.487Z,11.62
2018-04-10T04:26:58.449Z,11.63
2018-04-10T04:28:08.409Z,11.51
2018-04-10T04:29:18.109Z,11.53
2018-04-10T04:30:28.064Z,11.6
2018-04-10T04:31:38.041Z,11.62
2018-04-10T04:32:48.004Z,11.59
2018-04-10T04:33:57.732Z,11.63
2018-04-10T04:35:07.675Z,11.6
2018-04-10T04:36:17.372Z,11.65
2018-04-10T04:37:26.820Z,11.62
2018-04-10T04:38:36.789Z,11.7
2018-04-10T04:39:46.764Z,11.73
2018-04-10T04:40:56.485Z,11.74
2018-04-10T04:42:06.437Z,11.73
2018-04-10T04:43:16.399Z,11.7
2018-04-10T04:44:26.353Z,11.78
2018-04-10T04:45:36.309Z,11.77
2018-04-10T04:46:46.284Z,11.68
2018-04-10T04:47:56.300Z,11.81
2018-04-10T04:49:06.038Z,11.74
2018-04-10T04:50:15.998Z,11.76
2018-04-10T04:51:25.691Z,11.78
2018-04-10T04:52:35.394Z,11.73
2018-04-10T04:53:45.347Z,11.74
2018-04-10T04:54:55.053Z,11.81
2018-04-10T04:56:04.753Z,11.76
2018-04-10T04:57:14.710Z,11.83
2018-04-10T04:58:24.414Z,11.83
2018-04-10T04:59:34.377Z,11.73
2018-04-10T05:00:44.436Z,11.76
2018-04-10T05:01:54.136Z,11.78
2018-04-10T05:03:03.842Z,11.85
2018-04-10T05:04:13.847Z,11.78
2018-04-10T05:05:23.549Z,11.76
2018-04-10T05:06:33.508Z,11.95
2018-04-10T05:07:43.471Z,11.89
2018-04-10T05:08:53.175Z,11.91
2018-04-10T05:10:03.130Z,11.93
2018-04-10T05:11:12.576Z,11.99
2018-04-10T05:12:22.534Z,11.91
2018-04-10T05:13:32.251Z,11.95
2018-04-10T05:14:42.206Z,11.96
2018-04-10T05:15:52.161Z,11.99
2018-04-10T05:17:02.114Z,12.02
2018-04-10T05:18:12.103Z,11.99
2018-04-10T05:19:21.808Z,12.05
2018-04-10T05:20:31.771Z,12
2018-04-10T05:21:41.481Z,12.1
2018-04-10T05:22:51.180Z,12.08
2018-04-10T05:24:00.948Z,12.11
2018-04-10T05:25:10.660Z,12.11
2018-04-10T05:26:20.644Z,12.23
2018-04-10T05:27:30.354Z,12.15
2018-04-10T05:28:40.318Z,12.29
2018-04-10T05:29:50.025Z,12.2
2018-04-10T05:30:59.865Z,12.29
2018-04-10T05:32:09.584Z,12.33
2018-04-10T05:33:19.580Z,12.37
2018-04-10T05:34:29.033Z,12.28
2018-04-10T05:35:38.788Z,12.37
2018-04-10T05:36:48.803Z,12.39
2018-04-10T05:37:58.509Z,12.45
2018-04-10T05:39:08.230Z,12.39
2018-04-10T05:40:18.007Z,12.48
2018-04-10T05:41:27.987Z,12.51
2018-04-10T05:42:37.976Z,12.51
2018-04-10T05:43:47.692Z,12.53
2018-04-10T05:44:57.915Z,12.58
2018-04-10T05:46:07.911Z,12.62
2018-04-10T05:47:17.633Z,12.68
2018-04-10T05:48:27.622Z,12.76
2018-04-10T05:49:37.349Z,12.72
2018-04-10T05:50:47.327Z,12.78
2018-04-10T05:51:57.308Z,12.8
2018-04-10T05:53:07.344Z,12.78
2018-04-10T05:54:17.543Z,12.88
2018-04-10T05:55:27.535Z,12.91
2018-04-10T05:56:37.254Z,12.93
2018-04-10T05:57:47.226Z,12.91
2018-04-10T05:58:56.979Z,12.99
2018-04-10T06:00:06.713Z,12.91
2018-04-10T06:01:16.453Z,12.98
2018-04-10T06:02:26.452Z,13.03
2018-04-10T06:03:36.185Z,13.03
2018-04-10T06:04:46.168Z,13.13
2018-04-10T06:05:56.148Z,13.11
2018-04-10T06:07:06.138Z,13.11
2018-04-10T06:08:16.097Z,13.23
2018-04-10T06:09:26.082Z,13.3
2018-04-10T06:10:36.083Z,13.23
2018-04-10T06:11:46.080Z,13.26
2018-04-10T06:12:55.809Z,13.31
2018-04-10T06:14:05.765Z,13.33
2018-04-10T06:15:15.498Z,13.3
2018-04-10T06:16:25.459Z,13.33
2018-04-10T06:17:35.428Z,13.39
2018-04-10T06:18:45.399Z,13.42
2018-04-10T06:19:55.187Z,13.47
2018-04-10T06:21:05.168Z,13.46
2018-04-10T06:22:15.150Z,13.54
2018-04-10T06:23:25.161Z,13.58
2018-04-10T06:24:35.148Z,13.6
2018-04-10T06:25:44.848Z,13.67
2018-04-10T06:26:54.829Z,13.71
2018-04-10T06:28:04.821Z,13.75
2018-04-10T06:29:14.774Z,13.73
2018-04-10T06:30:24.742Z,13.79
2018-04-10T06:31:34.456Z,13.86
2018-04-10T06:32:44.165Z,13.87
2018-04-10T06:33:54.132Z,14
2018-04-10T06:35:03.582Z,14.01
2018-04-10T06:36:13.534Z,14.01
2018-04-10T06:37:23.588Z,14.05
2018-04-10T06:38:33.391Z,14.03
2018-04-10T06:39:43.118Z,14.01
2018-04-10T06:40:53.081Z,14.12
2018-04-10T06:42:02.782Z,14.22
2018-04-10T06:43:12.766Z,14.23
2018-04-10T06:44:22.763Z,14.25
2018-04-10T06:45:32.502Z,14.28
2018-04-10T06:46:42.475Z,14.31
2018-04-10T06:47:52.456Z,14.36
2018-04-10T06:49:02.432Z,14.44
2018-04-10T06:50:12.418Z,14.53
2018-04-10T06:51:22.428Z,14.59
2018-04-10T06:52:32.147Z,14.66
2018-04-10T06:53:42.121Z,14.74
2018-04-10T06:54:52.086Z,14.77
2018-04-10T06:56:02.097Z,14.87
2018-04-10T06:57:12.083Z,14.86
2018-04-10T06:58:22.041Z,14.9
2018-04-10T06:59:32.007Z,14.86
2018-04-10T07:00:41.983Z,14.92
2018-04-10T07:01:51.961Z,15.05
2018-04-10T07:03:02.156Z,15.02
2018-04-10T07:04:11.876Z,14.97
2018-04-10T07:05:21.847Z,15.02
2018-04-10T07:06:32.113Z,15.12
2018-04-10T07:07:42.084Z,15.12
2018-04-10T07:08:52.071Z,15.15
2018-04-10T07:10:02.061Z,15.3
2018-04-10T07:11:12.080Z,15.25
2018-04-10T07:12:22.035Z,15.36
2018-04-10T07:13:31.767Z,15.43
2018-04-10T07:14:41.763Z,15.44
2018-04-10T07:15:51.482Z,15.48
2018-04-10T07:17:01.450Z,15.5
2018-04-10T07:18:11.430Z,15.51
2018-04-10T07:19:21.394Z,15.57
2018-04-10T07:20:31.112Z,15.59
2018-04-10T07:21:41.091Z,15.59
2018-04-10T07:22:51.065Z,15.62
2018-04-10T07:24:01.038Z,15.73
2018-04-10T07:25:11.002Z,15.7
2018-04-10T07:26:20.456Z,15.81
2018-04-10T07:27:30.177Z,15.87
2018-04-10T07:28:40.143Z,15.87
2018-04-10T07:29:49.845Z,16.02
2018-04-10T07:30:59.296Z,15.98
2018-04-10T07:32:09.054Z,16.17
2018-04-10T07:33:19.019Z,16.26
2018-04-10T07:34:28.995Z,16.26
2018-04-10T07:35:39.241Z,16.31
2018-04-10T07:36:49.281Z,16.28
2018-04-10T07:37:59.280Z,16.28
2018-04-10T07:39:09.265Z,16.36
2018-04-10T07:40:19.244Z,16.36
2018-04-10T07:41:29.222Z,16.43
2018-04-10T07:42:39.208Z,16.43
2018-04-10T07:43:49.222Z,16.46
2018-04-10T07:44:58.927Z,16.55
2018-04-10T07:46:08.947Z,16.51
2018-04-10T07:47:18.654Z,16.54
2018-04-10T07:48:28.631Z,16.62
2018-04-10T07:49:38.648Z,16.69
2018-04-10T07:50:48.639Z,16.73
2018-04-10T07:51:58.642Z,16.69
2018-04-10T07:53:08.646Z,16.82
2018-04-10T07:54:18.377Z,16.84
2018-04-10T07:55:28.359Z,16.98
2018-04-10T07:56:37.875Z,17.1
2018-04-10T07:57:48.076Z,17.13
2018-04-10T07:58:58.040Z,17.07
2018-04-10T08:00:08.015Z,17.27
2018-04-10T08:01:18.010Z,17.22
2018-04-10T08:02:27.934Z,17.37
2018-04-10T08:03:38.296Z,17.34
2018-04-10T08:04:48.193Z,17.39
2018-04-10T08:05:58.291Z,17.49
2018-04-10T08:07:08.050Z,17.49
2018-04-10T08:08:18.082Z,17.49
2018-04-10T08:09:27.815Z,17.52
2018-04-10T08:10:37.841Z,17.57
2018-04-10T08:11:47.847Z,17.72
2018-04-10T08:12:57.851Z,17.6
2018-04-10T08:14:07.579Z,17.75
2018-04-10T08:15:17.310Z,17.8
2018-04-10T08:16:27.332Z,17.98
2018-04-10T08:17:36.809Z,18.05
2018-04-10T08:18:46.559Z,18.11
2018-04-10T08:19:56.650Z,18.06
2018-04-10T08:21:06.644Z,18.21
2018-04-10T08:22:16.501Z,18.3
2018-04-10T08:23:26.388Z,18.39
2018-04-10T08:24:36.363Z,18.55
2018-04-10T08:25:46.095Z,18.73
2018-04-10T08:26:55.602Z,18.91
2018-04-10T08:28:05.359Z,19.11
2018-04-10T08:29:14.842Z,19.23
2018-04-10T08:30:24.837Z,19.45
2018-04-10T08:31:34.596Z,19.85
2018-04-10T08:32:44.112Z,19.97
2018-04-10T08:33:54.083Z,20.27
2018-04-10T08:35:03.836Z,20.3
2018-04-10T08:36:13.822Z,20.52
2018-04-10T08:37:23.564Z,20.66
2018-04-10T08:38:33.563Z,20.66
2018-04-10T08:39:43.571Z,20.75
2018-04-10T08:40:53.619Z,20.89
2018-04-10T08:42:03.351Z,21.01
2018-04-10T08:43:13.357Z,21.19
2018-04-10T08:44:23.354Z,21.43
2018-04-10T08:45:33.361Z,21.59
2018-04-10T08:46:43.371Z,21.68
2018-04-10T08:47:52.579Z,21.83
2018-04-10T08:49:02.346Z,21.91
2018-04-10T08:50:12.333Z,22.07
2018-04-10T08:51:22.329Z,22.18
2018-04-10T08:52:32.060Z,22.37
2018-04-10T08:53:42.281Z,22.41
2018-04-10T08:54:52.306Z,22.58
2018-04-10T08:56:02.051Z,22.74
2018-04-10T08:57:12.044Z,22.8
2018-04-10T08:58:21.779Z,22.99
2018-04-10T08:59:31.549Z,23.04
2018-04-10T09:00:41.550Z,22.96
2018-04-10T09:01:51.021Z,22.8
2018-04-10T09:03:00.742Z,22.67
2018-04-10T09:04:10.779Z,22.67
2018-04-10T09:05:20.509Z,22.74
2018-04-10T09:06:30.496Z,22.86
2018-04-10T09:07:40.520Z,22.96
2018-04-10T09:08:50.520Z,22.73
2018-04-10T09:10:00.498Z,22.86
2018-04-10T09:11:10.510Z,22.98
2018-04-10T09:12:20.508Z,23.02
2018-04-10T09:13:30.480Z,23.02
2018-04-10T09:14:40.458Z,22.99
2018-04-10T09:15:50.449Z,22.84
2018-04-10T09:17:00.198Z,22.98
2018-04-10T09:18:10.204Z,23.04
2018-04-10T09:19:19.711Z,23.02
2018-04-10T09:20:29.721Z,23.17
2018-04-10T09:21:39.745Z,23.1
2018-04-10T09:22:49.479Z,23.2
2018-04-10T09:23:59.242Z,23.28
2018-04-10T09:25:08.715Z,23.48
2018-04-10T09:26:18.933Z,23.62
2018-04-10T09:27:28.951Z,23.63
2018-04-10T09:28:38.948Z,23.42
2018-04-10T09:29:48.685Z,23.56
2018-04-10T09:30:58.670Z,23.84
2018-04-10T09:32:08.652Z,23.88
2018-04-10T09:33:19.444Z,23.84
2018-04-10T09:34:29.453Z,24.04
2018-04-10T09:35:39.466Z,24.09
2018-04-10T09:36:48.953Z,24.19
2018-04-10T09:37:58.966Z,24.34
2018-04-10T09:39:08.701Z,24.65
2018-04-10T09:40:18.736Z,24.65
2018-04-10T09:41:28.724Z,24.5
2018-04-10T09:42:38.720Z,24.37
2018-04-10T09:43:48.951Z,24.69
2018-04-10T09:44:58.745Z,24.71
2018-04-10T09:46:08.731Z,24.84
2018-04-10T09:47:18.726Z,25.16
2018-04-10T09:48:28.456Z,25.4
2018-04-10T09:49:37.928Z,25.52
2018-04-10T09:50:47.941Z,25.78
2018-04-10T09:51:57.936Z,25.67
2018-04-10T09:53:07.919Z,25.92
2018-04-10T09:54:17.656Z,25.83
2018-04-10T09:55:27.396Z,25.73
2018-04-10T09:56:37.393Z,25.78
2018-04-10T09:57:47.371Z,25.52
2018-04-10T09:58:57.348Z,25.62
2018-04-10T10:00:07.363Z,25.95
2018-04-10T10:01:17.079Z,26.39
2018-04-10T10:02:26.802Z,26.63
2018-04-10T10:03:36.525Z,26.51
2018-04-10T10:04:46.518Z,26.6
2018-04-10T10:05:56.506Z,26.68
2018-04-10T10:07:06.491Z,26.3
2018-04-10T10:08:16.492Z,25.8
2018-04-10T10:09:25.997Z,25.96
2018-04-10T10:10:35.701Z,26.11
2018-04-10T10:11:45.692Z,26.45
2018-04-10T10:12:55.850Z,26.49
2018-04-10T10:14:05.650Z,26.33
2018-04-10T10:15:15.645Z,26.33
2018-04-10T10:16:25.391Z,26.81
2018-04-10T10:17:35.134Z,27.03
2018-04-10T10:18:44.864Z,26.98
2018-04-10T10:19:54.942Z,26.68
2018-04-10T10:21:04.995Z,26.78
2018-04-10T10:22:14.482Z,26.85
2018-04-10T10:23:24.470Z,26.92
2018-04-10T10:24:33.957Z,26.7
2018-04-10T10:25:43.964Z,26.79
2018-04-10T10:26:53.966Z,26.89
2018-04-10T10:28:03.502Z,26.92
2018-04-10T10:29:13.494Z,27.11
2018-04-10T10:30:23.473Z,27.07
2018-04-10T10:31:33.461Z,26.92
2018-04-10T10:32:43.457Z,27.08
2018-04-10T10:33:53.456Z,26.96
2018-04-10T10:35:03.457Z,27.23
2018-04-10T10:36:13.495Z,27.33
2018-04-10T10:37:23.536Z,27.26
2018-04-10T10:38:33.287Z,27.58
2018-04-10T10:39:43.261Z,27.66
2018-04-10T10:40:53.249Z,27.75
2018-04-10T10:42:03.260Z,27.93
2018-04-10T10:43:13.277Z,28.08
2018-04-10T10:44:23.271Z,28.25
2018-04-10T10:45:33.277Z,28.04
2018-04-10T10:46:43.260Z,28.2
2018-04-10T10:47:53.277Z,28.37
2018-04-10T10:49:03.020Z,28.16
2018-04-10T10:50:12.911Z,27.9
2018-04-10T10:51:22.911Z,27.85
2018-04-10T10:52:32.901Z,27.81
2018-04-10T10:53:42.884Z,27.85
2018-04-10T10:54:52.607Z,27.57
2018-04-10T10:56:02.595Z,27.58
2018-04-10T10:57:12.612Z,27.72
2018-04-10T10:58:22.359Z,27.81
2018-04-10T10:59:32.347Z,28.13
2018-04-10T11:00:42.202Z,28.1
2018-04-10T11:01:51.977Z,27.95
2018-04-10T11:03:01.978Z,27.86
2018-04-10T11:04:11.718Z,27.78
2018-04-10T11:05:21.186Z,27.78
2018-04-10T11:06:31.315Z,27.86
2018-04-10T11:07:41.313Z,28.06
2018-04-10T11:08:51.316Z,28.13
2018-04-10T11:10:01.319Z,28.16
2018-04-10T11:11:11.306Z,28.45
2018-04-10T11:12:21.328Z,28.67
2018-04-10T11:13:31.322Z,28.28
2018-04-10T11:14:41.128Z,27.93
2018-04-10T11:15:50.963Z,27.78
2018-04-10T11:17:00.733Z,27.98
2018-04-10T11:18:10.720Z,28.12
2018-04-10T11:19:20.458Z,28.28
2018-04-10T11:20:30.192Z,28.1
2018-04-10T11:21:40.199Z,28.28
2018-04-10T11:22:50.193Z,28.15
2018-04-10T11:24:00.175Z,28.13
2018-04-10T11:25:09.893Z,28.37
2018-04-10T11:26:19.900Z,28.83
2018-04-10T11:27:29.654Z,28.84
2018-04-10T11:28:39.641Z,28.8
2018-04-10T11:29:49.369Z,29.15
2018-04-10T11:30:59.118Z,29.13
2018-04-10T11:32:09.115Z,28.96
2018-04-10T11:33:18.849Z,29.25
2018-04-10T11:34:28.864Z,29.09
2018-04-10T11:35:38.623Z,29.25
2018-04-10T11:36:48.386Z,29.71
2018-04-10T11:37:58.387Z,29.43
2018-04-10T11:39:08.412Z,29.32
2018-04-10T11:40:18.236Z,29.09
2018-04-10T11:41:28.482Z,28.7
2018-04-10T11:42:38.244Z,28.45
2018-04-10T11:43:47.732Z,28.34
2018-04-10T11:44:57.730Z,28.33
2018-04-10T11:46:07.791Z,28.57
2018-04-10T11:47:17.839Z,28.87
2018-04-10T11:48:27.913Z,28.89
2018-04-10T11:49:38.118Z,29.16
2018-04-10T11:50:48.155Z,29.4
2018-04-10T11:51:57.888Z,29.24
2018-04-10T11:53:07.889Z,29
2018-04-10T11:54:18.085Z,28.97
2018-04-10T11:55:28.083Z,28.92
2018-04-10T11:56:38.103Z,28.97
2018-04-10T11:57:47.577Z,29.03
2018-04-10T11:58:57.623Z,28.72
2018-04-10T12:00:07.395Z,29
2018-04-10T12:01:17.437Z,29.3
2018-04-10T12:02:27.417Z,29.28
2018-04-10T12:03:36.928Z,29.43
2018-04-10T12:04:46.667Z,29.55
2018-04-10T12:05:56.407Z,29.55
2018-04-10T12:07:06.464Z,29.73
2018-04-10T12:08:16.532Z,29.43
2018-04-10T12:09:26.539Z,29.35
2018-04-10T12:10:36.556Z,29.59
2018-04-10T12:11:46.292Z,29.71
2018-04-10T12:12:56.032Z,29.58
2018-04-10T12:14:05.779Z,29.49
2018-04-10T12:15:15.796Z,29.67
2018-04-10T12:16:26.050Z,29.46
2018-04-10T12:17:36.080Z,29.53
2018-04-10T12:18:45.573Z,29.81
2018-04-10T12:19:55.595Z,29.99
2018-04-10T12:21:05.636Z,29.89
2018-04-10T12:22:15.623Z,29.8
2018-04-10T12:23:25.658Z,30.08
2018-04-10T12:24:35.647Z,30.52
2018-04-10T12:25:45.673Z,30.55
2018-04-10T12:26:55.672Z,30.83
2018-04-10T12:28:05.413Z,31.15
2018-04-10T12:29:15.445Z,31.47
2018-04-10T12:30:25.378Z,31.41
2018-04-10T12:31:35.091Z,31.37
2018-04-10T12:32:44.836Z,31.22
2018-04-10T12:33:54.826Z,31.22
2018-04-10T12:35:04.808Z,30.63
2018-04-10T12:36:14.791Z,30.74
2018-04-10T12:37:24.795Z,30.63
2018-04-10T12:38:34.799Z,30.77
2018-04-10T12:39:44.789Z,30.51
2018-04-10T12:40:54.522Z,30.99
2018-04-10T12:42:04.518Z,31.2
2018-04-10T12:43:14.506Z,31.39
2018-04-10T12:44:24.505Z,31.59
2018-04-10T12:45:34.241Z,31.87
2018-04-10T12:46:44.227Z,32.11
2018-04-10T12:47:54.223Z,32
2018-04-10T12:49:04.237Z,32.17
2018-04-10T12:50:14.232Z,32.39
2018-04-10T12:51:24.239Z,32.22
2018-04-10T12:52:34.267Z,31.82
2018-04-10T12:53:44.118Z,31.18
2018-04-10T12:54:53.864Z,30.92
2018-04-10T12:56:03.612Z,30.96
2018-04-10T12:57:13.596Z,31.05
2018-04-10T12:58:23.603Z,30.81
2018-04-10T12:59:33.841Z,30.92
2018-04-10T13:00:43.299Z,31.3
2018-04-10T13:01:53.270Z,31.51
2018-04-10T13:03:03.277Z,31.66
2018-04-10T13:04:12.995Z,31.42
2018-04-10T13:05:23.001Z,31.14
2018-04-10T13:06:33.024Z,31.23
2018-04-10T13:07:43.071Z,31.28
2018-04-10T13:08:53.046Z,31.17
2018-04-10T13:10:03.091Z,30.85
2018-04-10T13:11:13.137Z,30.1
2018-04-10T13:12:23.126Z,30.39
2018-04-10T13:13:33.205Z,30.63
2018-04-10T13:14:43.009Z,30.61
2018-04-10T13:15:52.485Z,30.59
2018-04-10T13:17:02.522Z,31.02
2018-04-10T13:18:12.531Z,31.47
2018-04-10T13:19:22.513Z,31.59
2018-04-10T13:20:32.265Z,31.48
2018-04-10T13:21:42.019Z,31.51
2018-04-10T13:22:51.745Z,31.45
2018-04-10T13:24:01.733Z,31
2018-04-10T13:25:11.737Z,31.13
2018-04-10T13:26:21.729Z,31.25
2018-04-10T13:27:31.475Z,31.18
2018-04-10T13:28:41.501Z,30.98
2018-04-10T13:29:51.505Z,31.05
2018-04-10T13:31:00.980Z,31.1
2018-04-10T13:32:10.981Z,31.11
2018-04-10T13:33:20.993Z,30.83
2018-04-10T13:34:31.036Z,30.83
2018-04-10T13:35:41.025Z,30.49
2018-04-10T13:36:51.032Z,30.56
2018-04-10T13:38:01.027Z,30.39
2018-04-10T13:39:11.132Z,30.35
2018-04-10T13:40:21.129Z,30.51
2018-04-10T13:41:31.112Z,30.52
2018-04-10T13:42:40.852Z,30.46
2018-04-10T13:43:50.948Z,30.55
2018-04-10T13:45:00.970Z,30.95
2018-04-10T13:46:10.960Z,31.17
2018-04-10T13:47:20.957Z,31.47
2018-04-10T13:48:30.939Z,31.66
2018-04-10T13:49:40.910Z,32
2018-04-10T13:50:50.884Z,31.87
2018-04-10T13:52:00.876Z,31.87
2018-04-10T13:53:10.599Z,31.42
2018-04-10T13:54:20.644Z,31.26
2018-04-10T13:55:30.745Z,31.04
2018-04-10T13:56:40.502Z,31.02
2018-04-10T13:57:50.494Z,30.8
2018-04-10T13:59:00.480Z,30.77
2018-04-10T14:00:10.238Z,30.59
2018-04-10T14:01:20.231Z,30.85
2018-04-10T14:02:30.223Z,31
2018-04-10T14:03:39.957Z,31.13
2018-04-10T14:04:49.767Z,31.22
2018-04-10T14:05:59.824Z,30.92
2018-04-10T14:07:09.828Z,30.76
2018-04-10T14:08:19.807Z,30.62
2018-04-10T14:09:29.532Z,30.08
2018-04-10T14:10:38.758Z,29.28
2018-04-10T14:11:48.791Z,28.8
2018-04-10T14:12:58.774Z,28.62
2018-04-10T14:14:08.847Z,28.65
2018-04-10T14:15:18.625Z,28.83
2018-04-10T14:16:28.361Z,28.93
2018-04-10T14:17:38.100Z,29.2
2018-04-10T14:18:48.101Z,29.03
2018-04-10T14:19:58.099Z,28.97
2018-04-10T14:21:08.082Z,28.87
2018-04-10T14:22:17.829Z,28.8
2018-04-10T14:23:27.811Z,28.67
2018-04-10T14:24:37.539Z,28.82
2018-04-10T14:25:46.756Z,29.06
2018-04-10T14:26:56.726Z,29.1
2018-04-10T14:28:06.462Z,29.2
2018-04-10T14:29:16.439Z,28.9
2018-04-10T14:30:26.418Z,28.82
2018-04-10T14:31:36.416Z,28.8
2018-04-10T14:32:46.499Z,28.78
2018-04-10T14:33:56.289Z,28.92
2018-04-10T14:35:06.266Z,29.12
2018-04-10T14:36:16.255Z,29.46
2018-04-10T14:37:26.275Z,29.58
2018-04-10T14:38:36.259Z,29.69
2018-04-10T14:39:46.240Z,29.68
2018-04-10T14:40:55.969Z,29.57
2018-04-10T14:42:05.720Z,29.42
2018-04-10T14:43:15.689Z,29.13
2018-04-10T14:44:25.686Z,29.03
2018-04-10T14:45:35.668Z,29.03
2018-04-10T14:46:45.384Z,29.03
2018-04-10T14:47:55.465Z,28.87
2018-04-10T14:49:05.443Z,29.05
2018-04-10T14:50:15.399Z,29.07
2018-04-10T14:51:25.392Z,28.9
2018-04-10T14:52:35.390Z,29.07
2018-04-10T14:53:45.109Z,29.22
2018-04-10T14:54:55.123Z,29.4
2018-04-10T14:56:05.112Z,28.82
2018-04-10T14:57:15.104Z,28.72
2018-04-10T14:58:25.082Z,28.74
2018-04-10T14:59:35.076Z,28.78
2018-04-10T15:00:44.846Z,28.62
2018-04-10T15:01:54.299Z,28.45
2018-04-10T15:03:04.029Z,28.45
2018-04-10T15:04:14.004Z,28.35
2018-04-10T15:05:23.998Z,28.31